Scroll down
FLIGHT INFORMATION
American Airlines

AAL4360

At Arrival Gate

KMSP
 KORD
DATE: 2020-08-09
GATE:  -
GATE DEPARTURE: 20:25
TAKEOFF: 20:34
DATE: 2020-08-09
GATE:  -
LANDING: 21:29
GATE ARRIVAL: 21:39
FLIGHT DATA
Crew: 
Speed: 
480 kts
Altitude: 
31,005 ft
Stage Length: 
289.8 nm
Block Time: 
1.2 hrs
Flight Time: 
0.9 hrs
Fuel Used: 
6,965 lb
Cleared Route: KMSP FGT FOBUG DOKTR CORDY RST ZZIPR WELCM TEEOO MITEE BHAWK STNLE CUUPP CHMPN CLSBY FYTTE MOTRR COGSS MADII SOOLU KURKK VULCN HIMGO EBENS RW27L
TRACK DATA
50,000 ft 1,000 kts
AIRCRAFT INFO AND CUMULATIVE STATS
Aircraft Type: 
B738BW
Registration: 
SELCAL: 
CKBF
MSN/LN: 
33488 / 4530
Operator: 
Total Flights: 
23
Total Block Time: 
52.8 hrs
Total Flight Time: 
47 hrs
Total Fuel Time: 
294,960 lb
DATALINK LOG | Newest first | Current as of: 2020-11-26 23:46:38
LABEL SEQUENCE CONTENT Dn/Up
QD405321:39 10.7▼ Dn
QC304521:29▼ Dn
2U1639KORD 092051Z 18013G20KT 10SM FEW042 FEW050 32/21 A2996 RMK AO2 SLP140 T03170211 58019▲ Up
2S1733KORD▼ Dn
2U1054KORD 092051Z 18013G20KT 10SM FEW042 FEW050 32/21 A2996 RMK AO2 SLP140 T03170211 58019▲ Up
2S1130KORD▼ Dn
2U5730KORD 091951Z 18009G19KT 10SM SCT049 BKN250 33/20 A2999 RMK AO2 PK WND 18026/1857 SLP148 T03280200▲ Up
2S5918KORD▼ Dn
2U5624KORD 091951Z 18009G19KT 10SM SCT049 BKN250 33/20 A2999 RMK AO2 PK WND 18026/1857 SLP148 T03280200▲ Up
2S5817KORD▼ Dn
5Z58179 AUG 20 20:56:18z / FLT DECK GOOD / ACF POS GOOD / GRND SERVICES GOOD / MAINT GOOD▼ Dn
GA5716ADVANCED GATE ASSIGNMENTS NOT YET AVAILABLE AT THIS AIRPORT▲ Up
GR5716KORD 21:31 MAAS 05 YP/UM 03/04 WCHR/S/C 00/01/02 HI-VAL NO DIPL/VIP YES▼ Dn
QB365620:34▼ Dn
QA264720:25 17.7▼ Dn
A31749CLEARED TO KORD VIA RST1 RST ZZIPR FYTTE5. SQUAWK .▲ Up
5U1657KORD 100004Z 19012G20KT 10SM SCT050 33/20 A2999▲ Up
2U1653KMSP 091953Z 34009KT 10SM SCT036 BKN070 27/22 A2982 RMK AO2 SLP091 T02670217▲ Up
5S1746KORD▼ Dn
2S1746KMSP▼ Dn
Q01638[LINK ACK]▲ Up
Q01638[LINK TEST]▼ Dn


AIRCRAFT HISTORY
FLIGHT DATE FLIGHT NO. ORIGIN DESTINATION CLEARED ROUTE BLOCK TIME FLIGHT TIME FUEL USED PILOT
2020-11-26AAL2408KTPA KORD KTPA ENDED LACEN BRUTS JAMIZ JOHNN ATL KAILL GLAZR JEDER HELUB VOSTK ROYYZ HEVAN BONNT NYLEN VEECK BOONE HANNI CLUSO KAYTO PINKK MONKZ JORJO POSSM HAZIL RW28C2.6 hrs2.3 hrs13,817 lbGeorge M
2020-11-25AAL2998KBOS KTPA KBOS TJAYY BRRRO JAITE HEWMO KENWI PATSS NELIE BIZEX DUEYS JERSY SBJ BIGGY COPES MXE STOEN SACRI MURPH TOOBN HAMMZ GVE DRAIK BROSK GSO SLOJO ILBEE FISHO SHRIL TEEEM TEUFL GEEYE JAYJA EDISN OLENE MARVI KOKOH DADES LZARD JKBAL BUCCS RW19L3.3 hrs3.1 hrs17,644 lbGeorge M
2020-11-25AAL832KORD KBOS KORD EBAKE WISMO POSTS PADDE SVM DKK PONCT STOLI MNSTA SEETS DUBLE BASEZ JFUND AUTUM WINTA HRRIS ISLAY LWLND WYANE RW22L1.9 hrs1.7 hrs10,454 lbGeorge M
2020-11-24AAL4886KMSP KORD KMSP FGT FOBUG DOKTR CORDY RST ZZIPR WELCM TEEOO MITEE BHAWK STNLE CUUPP CHMPN CLSBY FYTTE MOTRR COGSS MADII SOOLU KURKK VULCN HIMGO DEVON RW09R1.2 hrs0.9 hrs6,161 lbGeorge M
2020-11-22AAL331KORD KMSP KORD PMPKN NEATO DLLAN RONIC KAMMA BEERI ROBBY KBULL ZZING HENDR CMAAC KKILR HUGGI KRISP STUWE GEEQU AABEZ RW30L1.2 hrs0.9 hrs6,388 lbGeorge M
2020-11-21AAL575KPHX KORD KPHX JINOL OSGUE ZIDOG OXYGN ZILUB FORPE LALUZ SJN ABQ FTI KENTO DRAWL GCK SLN AGENT KIDER IRK LOAMY KEOKK DRAMS RYELY BFORD BYLAW BENKY NEWRK AHSTN PETAH JORJO MONKZ TONIE RRUDA RW10C3 hrs2.7 hrs16,574 lbGeorge M
2020-11-21AAL2065KDEN KPHX KDEN BRKEM LENNN TIKLR CIROS RKYMT SOLAR SMMUR DAAYE GUP KIRKM SLIDR TINIZ PAYSO EAGUL HOMRR BOHTX GEENO QUENY HINEY OBASE JAMIL RW081.9 hrs1.5 hrs10,514 lbGeorge M
2020-11-21AAL1148KORD KDEN KORD OLINN OREOS OBENE OGALE OBH BRWRY LAWGR PPINT TAPME GRRUB KIKME RW16L2.7 hrs2.4 hrs14,192 lbGeorge M
2020-11-16AAL2408KTPA KORD KTPA ENDED LACEN BRUTS JAMIZ JOHNN ATL KAILL GLAZR JEDER HELUB VOSTK ROYYZ HEVAN BONNT NYLEN VEECK BOONE HANNI CLUSO KAYTO PINKK MONKZ JORJO POSSM HAZIL RW28C2.7 hrs2.3 hrs14,856 lbGeorge M
2020-11-08AAL2419KCLT KTPA KTPA PIE KTPA1.6 hrs1.4 hrs9,115 lbGeorge M
2020-11-08AAL511KORD KCLT KCLT TOMME KCLT1.9 hrs1.6 hrs10,591 lbGeorge M
2020-11-07AAL615KPHX KORD KPHX WIVLA HIRVU ZIDOG OXYGN ZILUB FORPE LALUZ SJN ABQ FTI KENTO DRAWL GCK SLN AGENT KIDER IRK LOAMY KEOKK DRAMS RYELY BFORD BYLAW BENKY NEWRK AHSTN PETAH JORJO MONKZ TONIE HAZIL RW28C3.1 hrs2.8 hrs18,015 lbGeorge M
2020-11-07AAL407KDFW KPHX KPHX AVENT KPHX2.5 hrs2.2 hrs13,729 lbGeorge M
2020-11-07AAL5945KSDF KDFW KDFW YUPRU JASPA KDFW1.8 hrs1.6 hrs8,877 lbGeorge M
2020-11-07AAL4723KORD KSDF KSDF TORAC KSDF1.1 hrs0.8 hrs6,057 lbGeorge M
2020-10-17AAL1540KSEA KORD KSEA SEA ZADON ZELAK ZIRAN MLP GTF MLS SWTHN JELRO KEKPE UFFDA HSTIN ZZIPR WELCM TEEOO MITEE BHAWK STNLE CUUPP CHMPN CLSBY FYTTE MOTRR COGSS MADII SOOLU JORJO MONKZ TONIE HAZIL RW28C3.3 hrs3.1 hrs19,465 lbGeorge M
2020-09-26AAL1156KPHX KSEA KPHX GCN WINEN NEERO IMB KSEA2.9 hrs2.7 hrs16,471 lbAlex K.
2020-09-20AAL447KORD KPHX KORD PEKUE PIPPN ELYNA BACNN STJ SLN GCK CIM ZUN DOJOE SLIDR TINIZ PAYSO EAGUL HOMRR BOHTX GEENO QUENY HINEY OBASE JAMIL RW083.4 hrs3.2 hrs18,055 lbGeorge M
2020-09-15AAL1106KDFW KORD KDFW HAZKL RYNNE AKUNA TIKYS MLC SGF WELTS MCDEE CASHN VINCA MAROC TRICH TRTLL HIHRY RINNO JORJO MONKZ TONIE HAZIL RW28C2 hrs1.7 hrs10,671 lbGeorge M
2020-09-07AAL1114KSJC KDFW 3.3 hrs2.9 hrs17,662 lbGeorge M
2020-09-07AAL2722KPHX KSJC 1.7 hrs1.5 hrs9,793 lbGeorge M
2020-09-07AAL769KORD KPHX KORD PEKUE PIPPN ELYNA BACNN STJ SLN GCK CIM ZUN DOJOE SLIDR TINIZ PAYSO EAGUL HOMRR BOHTX GEENO QUENY HINEY OBASE JAMIL RW083.3 hrs3.1 hrs18,894 lbGeorge M
2020-08-09AAL4360KMSP KORD KMSP FGT FOBUG DOKTR CORDY RST ZZIPR WELCM TEEOO MITEE BHAWK STNLE CUUPP CHMPN CLSBY FYTTE MOTRR COGSS MADII SOOLU KURKK VULCN HIMGO EBENS RW27L1.2 hrs0.9 hrs6,965 lbGeorge M